sensor_id;sensor_type;location;lat;lon;timestamp;temperature;humidity
63289;DHT22;49412;48.162;-1.978;2022-10-16T00:00:16;15.00;99.90
63289;DHT22;49412;48.162;-1.978;2022-10-16T00:02:41;15.10;99.90
63289;DHT22;49412;48.162;-1.978;2022-10-16T00:05:07;14.90;99.90
63289;DHT22;49412;48.162;-1.978;2022-10-16T00:07:33;15.00;99.90
63289;DHT22;49412;48.162;-1.978;2022-10-16T00:09:58;15.00;99.90
63289;DHT22;49412;48.162;-1.978;2022-10-16T00:12:24;15.00;99.90
63289;DHT22;49412;48.162;-1.978;2022-10-16T00:14:49;15.00;99.90
63289;DHT22;49412;48.162;-1.978;2022-10-16T00:17:15;15.00;99.90
63289;DHT22;49412;48.162;-1.978;2022-10-16T00:19:40;15.10;99.90
63289;DHT22;49412;48.162;-1.978;2022-10-16T00:22:06;15.00;99.90
63289;DHT22;49412;48.162;-1.978;2022-10-16T00:24:31;15.00;99.90
63289;DHT22;49412;48.162;-1.978;2022-10-16T00:26:57;15.10;99.90
63289;DHT22;49412;48.162;-1.978;2022-10-16T00:29:22;15.10;99.90
63289;DHT22;49412;48.162;-1.978;2022-10-16T00:31:48;15.10;99.90
63289;DHT22;49412;48.162;-1.978;2022-10-16T00:34:14;15.10;99.90
63289;DHT22;49412;48.162;-1.978;2022-10-16T00:36:39;15.10;99.90
63289;DHT22;49412;48.162;-1.978;2022-10-16T00:39:05;15.20;99.90
63289;DHT22;49412;48.162;-1.978;2022-10-16T00:41:31;15.20;99.90
63289;DHT22;49412;48.162;-1.978;2022-10-16T00:43:58;15.20;99.90
63289;DHT22;49412;48.162;-1.978;2022-10-16T00:46:40;15.10;99.90
63289;DHT22;49412;48.162;-1.978;2022-10-16T00:51:33;15.10;99.90
63289;DHT22;49412;48.162;-1.978;2022-10-16T00:54:00;15.20;99.90
63289;DHT22;49412;48.162;-1.978;2022-10-16T00:56:26;15.10;99.90
63289;DHT22;49412;48.162;-1.978;2022-10-16T00:58:52;15.10;99.90
63289;DHT22;49412;48.162;-1.978;2022-10-16T01:01:17;15.10;99.90
63289;DHT22;49412;48.162;-1.978;2022-10-16T01:03:43;15.20;99.90
63289;DHT22;49412;48.162;-1.978;2022-10-16T01:08:45;15.00;99.90
63289;DHT22;49412;48.162;-1.978;2022-10-16T01:11:22;15.10;99.90
63289;DHT22;49412;48.162;-1.978;2022-10-16T01:13:50;15.00;99.90
63289;DHT22;49412;48.162;-1.978;2022-10-16T01:16:22;14.90;99.90
63289;DHT22;49412;48.162;-1.978;2022-10-16T01:18:54;14.90;99.90
63289;DHT22;49412;48.162;-1.978;2022-10-16T01:21:23;14.90;99.90
63289;DHT22;49412;48.162;-1.978;2022-10-16T01:24:04;15.00;99.90
63289;DHT22;49412;48.162;-1.978;2022-10-16T01:29:06;15.10;99.90
63289;DHT22;49412;48.162;-1.978;2022-10-16T01:31:36;15.10;99.90
63289;DHT22;49412;48.162;-1.978;2022-10-16T01:34:02;15.00;99.90
63289;DHT22;49412;48.162;-1.978;2022-10-16T01:36:47;15.00;99.90
63289;DHT22;49412;48.162;-1.978;2022-10-16T01:39:15;15.00;99.90
63289;DHT22;49412;48.162;-1.978;2022-10-16T01:41:43;14.90;99.90
63289;DHT22;49412;48.162;-1.978;2022-10-16T01:44:14;14.90;99.90
63289;DHT22;49412;48.162;-1.978;2022-10-16T01:46:43;14.80;99.90
63289;DHT22;49412;48.162;-1.978;2022-10-16T01:49:10;14.70;99.90
63289;DHT22;49412;48.162;-1.978;2022-10-16T01:51:36;14.70;99.90
63289;DHT22;49412;48.162;-1.978;2022-10-16T01:54:02;14.60;99.90
63289;DHT22;49412;48.162;-1.978;2022-10-16T01:56:30;14.60;99.90
63289;DHT22;49412;48.162;-1.978;2022-10-16T01:58:57;14.70;99.90
63289;DHT22;49412;48.162;-1.978;2022-10-16T02:01:25;14.60;99.90
63289;DHT22;49412;48.162;-1.978;2022-10-16T02:03:52;14.60;99.90
63289;DHT22;49412;48.162;-1.978;2022-10-16T02:06:19;14.70;99.90
63289;DHT22;49412;48.162;-1.978;2022-10-16T02:08:45;14.80;99.90
63289;DHT22;49412;48.162;-1.978;2022-10-16T02:11:10;14.70;99.90
63289;DHT22;49412;48.162;-1.978;2022-10-16T02:13:38;14.70;99.90
63289;DHT22;49412;48.162;-1.978;2022-10-16T02:16:04;14.70;99.90
63289;DHT22;49412;48.162;-1.978;2022-10-16T02:18:29;14.70;99.90
63289;DHT22;49412;48.162;-1.978;2022-10-16T02:21:03;14.70;99.90
63289;DHT22;49412;48.162;-1.978;2022-10-16T02:23:57;14.60;99.90
63289;DHT22;49412;48.162;-1.978;2022-10-16T02:26:18;14.60;99.90
63289;DHT22;49412;48.162;-1.978;2022-10-16T02:28:48;14.60;99.90
63289;DHT22;49412;48.162;-1.978;2022-10-16T02:31:18;14.50;99.90
63289;DHT22;49412;48.162;-1.978;2022-10-16T02:33:47;14.50;99.90
63289;DHT22;49412;48.162;-1.978;2022-10-16T02:36:12;14.40;99.90
63289;DHT22;49412;48.162;-1.978;2022-10-16T02:38:38;14.50;99.90
63289;DHT22;49412;48.162;-1.978;2022-10-16T02:41:05;14.40;99.90
63289;DHT22;49412;48.162;-1.978;2022-10-16T02:43:31;14.40;99.90
63289;DHT22;49412;48.162;-1.978;2022-10-16T02:45:56;14.30;99.90
63289;DHT22;49412;48.162;-1.978;2022-10-16T02:48:22;14.30;99.90
63289;DHT22;49412;48.162;-1.978;2022-10-16T02:50:48;14.30;99.90
63289;DHT22;49412;48.162;-1.978;2022-10-16T02:53:13;14.30;99.90
63289;DHT22;49412;48.162;-1.978;2022-10-16T02:55:39;14.30;99.90
63289;DHT22;49412;48.162;-1.978;2022-10-16T02:58:04;14.30;99.90
63289;DHT22;49412;48.162;-1.978;2022-10-16T03:00:30;14.20;99.90
63289;DHT22;49412;48.162;-1.978;2022-10-16T03:02:55;14.20;99.90
63289;DHT22;49412;48.162;-1.978;2022-10-16T03:05:21;14.30;99.90
63289;DHT22;49412;48.162;-1.978;2022-10-16T03:07:46;14.40;99.90
63289;DHT22;49412;48.162;-1.978;2022-10-16T03:10:12;14.30;99.90
63289;DHT22;49412;48.162;-1.978;2022-10-16T03:12:38;14.20;99.90
63289;DHT22;49412;48.162;-1.978;2022-10-16T03:15:03;14.30;99.90
63289;DHT22;49412;48.162;-1.978;2022-10-16T03:17:29;14.30;99.90
63289;DHT22;49412;48.162;-1.978;2022-10-16T03:19:54;14.40;99.90
63289;DHT22;49412;48.162;-1.978;2022-10-16T03:22:20;14.50;99.90
63289;DHT22;49412;48.162;-1.978;2022-10-16T03:24:45;14.50;99.90
63289;DHT22;49412;48.162;-1.978;2022-10-16T03:27:11;14.50;99.90
63289;DHT22;49412;48.162;-1.978;2022-10-16T03:29:37;14.40;99.90
63289;DHT22;49412;48.162;-1.978;2022-10-16T03:32:02;14.30;99.90
63289;DHT22;49412;48.162;-1.978;2022-10-16T03:34:28;14.20;99.90
63289;DHT22;49412;48.162;-1.978;2022-10-16T03:36:53;14.20;99.90
63289;DHT22;49412;48.162;-1.978;2022-10-16T03:39:19;14.20;99.90
63289;DHT22;49412;48.162;-1.978;2022-10-16T03:41:45;14.20;99.90
63289;DHT22;49412;48.162;-1.978;2022-10-16T03:44:12;14.20;99.90
63289;DHT22;49412;48.162;-1.978;2022-10-16T03:46:37;14.10;99.90
63289;DHT22;49412;48.162;-1.978;2022-10-16T03:49:03;14.20;99.90
63289;DHT22;49412;48.162;-1.978;2022-10-16T03:51:28;14.10;99.90
63289;DHT22;49412;48.162;-1.978;2022-10-16T03:53:54;14.10;99.90
63289;DHT22;49412;48.162;-1.978;2022-10-16T03:56:20;14.10;99.90
63289;DHT22;49412;48.162;-1.978;2022-10-16T03:58:45;14.20;99.90
63289;DHT22;49412;48.162;-1.978;2022-10-16T04:01:11;14.30;99.90
63289;DHT22;49412;48.162;-1.978;2022-10-16T04:03:36;14.30;99.90
63289;DHT22;49412;48.162;-1.978;2022-10-16T04:06:02;14.40;99.90
63289;DHT22;49412;48.162;-1.978;2022-10-16T04:08:28;14.40;99.90
63289;DHT22;49412;48.162;-1.978;2022-10-16T04:10:53;14.50;99.90
63289;DHT22;49412;48.162;-1.978;2022-10-16T04:13:19;14.60;99.90
63289;DHT22;49412;48.162;-1.978;2022-10-16T04:15:44;14.60;99.90
63289;DHT22;49412;48.162;-1.978;2022-10-16T04:18:10;14.70;99.90
63289;DHT22;49412;48.162;-1.978;2022-10-16T04:20:36;14.70;99.90
63289;DHT22;49412;48.162;-1.978;2022-10-16T04:23:02;14.70;99.90
63289;DHT22;49412;48.162;-1.978;2022-10-16T04:25:27;14.80;99.90
63289;DHT22;49412;48.162;-1.978;2022-10-16T04:27:53;14.90;99.90
63289;DHT22;49412;48.162;-1.978;2022-10-16T04:30:19;14.90;99.90
63289;DHT22;49412;48.162;-1.978;2022-10-16T04:32:48;14.90;99.90
63289;DHT22;49412;48.162;-1.978;2022-10-16T04:35:14;15.10;99.90
63289;DHT22;49412;48.162;-1.978;2022-10-16T04:37:40;15.00;99.90
63289;DHT22;49412;48.162;-1.978;2022-10-16T04:40:06;15.00;99.90
63289;DHT22;49412;48.162;-1.978;2022-10-16T04:42:31;15.00;99.90
63289;DHT22;49412;48.162;-1.978;2022-10-16T04:44:57;15.10;99.90
63289;DHT22;49412;48.162;-1.978;2022-10-16T04:47:22;15.20;99.90
63289;DHT22;49412;48.162;-1.978;2022-10-16T04:49:48;15.10;99.90
63289;DHT22;49412;48.162;-1.978;2022-10-16T04:52:14;15.00;99.90
63289;DHT22;49412;48.162;-1.978;2022-10-16T04:54:40;14.90;99.90
63289;DHT22;49412;48.162;-1.978;2022-10-16T04:57:05;15.10;99.90
63289;DHT22;49412;48.162;-1.978;2022-10-16T04:59:31;15.10;99.90
63289;DHT22;49412;48.162;-1.978;2022-10-16T05:01:57;15.10;99.90
63289;DHT22;49412;48.162;-1.978;2022-10-16T05:04:22;15.10;99.90
63289;DHT22;49412;48.162;-1.978;2022-10-16T05:06:48;15.10;99.90
63289;DHT22;49412;48.162;-1.978;2022-10-16T05:09:13;15.10;99.90
63289;DHT22;49412;48.162;-1.978;2022-10-16T05:11:39;15.20;99.90
63289;DHT22;49412;48.162;-1.978;2022-10-16T05:14:05;15.20;99.90
63289;DHT22;49412;48.162;-1.978;2022-10-16T05:16:30;15.10;99.90
63289;DHT22;49412;48.162;-1.978;2022-10-16T05:18:56;15.20;99.90
63289;DHT22;49412;48.162;-1.978;2022-10-16T05:21:21;15.10;99.90
63289;DHT22;49412;48.162;-1.978;2022-10-16T05:23:47;15.20;99.90
63289;DHT22;49412;48.162;-1.978;2022-10-16T05:26:13;15.20;99.90
63289;DHT22;49412;48.162;-1.978;2022-10-16T05:28:38;15.10;99.90
63289;DHT22;49412;48.162;-1.978;2022-10-16T05:31:05;15.10;99.90
63289;DHT22;49412;48.162;-1.978;2022-10-16T05:33:31;15.10;99.90
63289;DHT22;49412;48.162;-1.978;2022-10-16T05:35:56;15.20;99.90
63289;DHT22;49412;48.162;-1.978;2022-10-16T05:38:22;15.30;99.90
63289;DHT22;49412;48.162;-1.978;2022-10-16T05:40:51;15.40;99.90
63289;DHT22;49412;48.162;-1.978;2022-10-16T05:43:16;15.30;99.90
63289;DHT22;49412;48.162;-1.978;2022-10-16T05:45:42;15.20;99.90
63289;DHT22;49412;48.162;-1.978;2022-10-16T05:48:08;15.30;99.90
63289;DHT22;49412;48.162;-1.978;2022-10-16T05:50:33;15.30;99.90
63289;DHT22;49412;48.162;-1.978;2022-10-16T05:52:59;15.20;99.90
63289;DHT22;49412;48.162;-1.978;2022-10-16T05:55:24;15.20;99.90
63289;DHT22;49412;48.162;-1.978;2022-10-16T05:57:50;15.20;99.90
63289;DHT22;49412;48.162;-1.978;2022-10-16T06:00:19;15.10;99.90
63289;DHT22;49412;48.162;-1.978;2022-10-16T06:02:44;15.20;99.90
63289;DHT22;49412;48.162;-1.978;2022-10-16T06:05:10;15.10;99.90
63289;DHT22;49412;48.162;-1.978;2022-10-16T06:07:36;15.10;99.90
63289;DHT22;49412;48.162;-1.978;2022-10-16T06:10:02;15.10;99.90
63289;DHT22;49412;48.162;-1.978;2022-10-16T06:12:28;15.10;99.90
63289;DHT22;49412;48.162;-1.978;2022-10-16T06:14:54;15.20;99.90
63289;DHT22;49412;48.162;-1.978;2022-10-16T06:17:19;15.20;99.90
63289;DHT22;49412;48.162;-1.978;2022-10-16T06:19:45;15.30;99.90
63289;DHT22;49412;48.162;-1.978;2022-10-16T06:22:10;15.30;99.90
63289;DHT22;49412;48.162;-1.978;2022-10-16T06:24:36;15.30;99.90
63289;DHT22;49412;48.162;-1.978;2022-10-16T06:27:02;15.20;99.90
63289;DHT22;49412;48.162;-1.978;2022-10-16T06:29:28;15.30;99.90
63289;DHT22;49412;48.162;-1.978;2022-10-16T06:31:54;15.20;99.90
63289;DHT22;49412;48.162;-1.978;2022-10-16T06:34:19;15.20;99.90
63289;DHT22;49412;48.162;-1.978;2022-10-16T06:36:45;15.20;99.90
63289;DHT22;49412;48.162;-1.978;2022-10-16T06:39:10;15.20;99.90
63289;DHT22;49412;48.162;-1.978;2022-10-16T06:41:36;15.40;99.90
63289;DHT22;49412;48.162;-1.978;2022-10-16T06:44:04;15.50;99.90
63289;DHT22;49412;48.162;-1.978;2022-10-16T06:46:30;15.60;99.90
63289;DHT22;49412;48.162;-1.978;2022-10-16T06:48:56;15.60;99.90
63289;DHT22;49412;48.162;-1.978;2022-10-16T06:51:22;15.60;99.90
63289;DHT22;49412;48.162;-1.978;2022-10-16T06:53:49;15.40;99.90
63289;DHT22;49412;48.162;-1.978;2022-10-16T06:56:25;15.30;99.90
63289;DHT22;49412;48.162;-1.978;2022-10-16T06:58:51;15.30;99.90
63289;DHT22;49412;48.162;-1.978;2022-10-16T07:01:17;15.30;99.90
63289;DHT22;49412;48.162;-1.978;2022-10-16T07:03:43;15.40;99.90
63289;DHT22;49412;48.162;-1.978;2022-10-16T07:06:11;15.50;99.90
63289;DHT22;49412;48.162;-1.978;2022-10-16T07:08:38;15.50;99.90
63289;DHT22;49412;48.162;-1.978;2022-10-16T07:11:04;15.50;99.90
63289;DHT22;49412;48.162;-1.978;2022-10-16T07:13:32;15.60;99.90
63289;DHT22;49412;48.162;-1.978;2022-10-16T07:16:03;15.70;99.90
63289;DHT22;49412;48.162;-1.978;2022-10-16T07:18:29;15.60;99.90
63289;DHT22;49412;48.162;-1.978;2022-10-16T07:21:02;15.50;99.90
63289;DHT22;49412;48.162;-1.978;2022-10-16T07:23:27;15.60;99.90
63289;DHT22;49412;48.162;-1.978;2022-10-16T07:25:53;15.70;99.90
63289;DHT22;49412;48.162;-1.978;2022-10-16T07:28:19;15.70;99.90
63289;DHT22;49412;48.162;-1.978;2022-10-16T07:30:45;15.80;99.90
63289;DHT22;49412;48.162;-1.978;2022-10-16T07:33:10;15.80;99.90
63289;DHT22;49412;48.162;-1.978;2022-10-16T07:35:36;15.90;99.90
63289;DHT22;49412;48.162;-1.978;2022-10-16T07:38:02;16.10;99.90
63289;DHT22;49412;48.162;-1.978;2022-10-16T07:40:27;16.20;99.90
63289;DHT22;49412;48.162;-1.978;2022-10-16T07:42:53;16.40;99.90
63289;DHT22;49412;48.162;-1.978;2022-10-16T07:45:18;16.40;99.90
63289;DHT22;49412;48.162;-1.978;2022-10-16T07:47:44;16.70;99.90
63289;DHT22;49412;48.162;-1.978;2022-10-16T07:50:10;17.00;99.90
63289;DHT22;49412;48.162;-1.978;2022-10-16T07:52:35;17.40;99.90
63289;DHT22;49412;48.162;-1.978;2022-10-16T07:55:01;17.90;99.90
63289;DHT22;49412;48.162;-1.978;2022-10-16T07:57:26;18.30;99.90
63289;DHT22;49412;48.162;-1.978;2022-10-16T07:59:52;18.20;99.90
63289;DHT22;49412;48.162;-1.978;2022-10-16T08:02:17;18.20;99.90
63289;DHT22;49412;48.162;-1.978;2022-10-16T08:04:43;17.90;99.90
63289;DHT22;49412;48.162;-1.978;2022-10-16T08:07:08;17.70;99.90
63289;DHT22;49412;48.162;-1.978;2022-10-16T08:09:34;17.70;99.90
63289;DHT22;49412;48.162;-1.978;2022-10-16T08:12:00;17.60;99.90
63289;DHT22;49412;48.162;-1.978;2022-10-16T08:14:25;17.50;99.90
63289;DHT22;49412;48.162;-1.978;2022-10-16T08:16:51;17.50;99.90
63289;DHT22;49412;48.162;-1.978;2022-10-16T08:19:16;17.30;99.90
63289;DHT22;49412;48.162;-1.978;2022-10-16T08:21:42;17.10;99.90
63289;DHT22;49412;48.162;-1.978;2022-10-16T08:24:07;17.30;99.90
63289;DHT22;49412;48.162;-1.978;2022-10-16T08:26:33;17.30;99.90
63289;DHT22;49412;48.162;-1.978;2022-10-16T08:28:59;17.20;99.90
63289;DHT22;49412;48.162;-1.978;2022-10-16T08:31:25;17.20;99.90
63289;DHT22;49412;48.162;-1.978;2022-10-16T08:33:52;17.40;99.90
63289;DHT22;49412;48.162;-1.978;2022-10-16T08:36:18;17.50;99.90
63289;DHT22;49412;48.162;-1.978;2022-10-16T08:38:43;17.60;99.90
63289;DHT22;49412;48.162;-1.978;2022-10-16T08:43:43;17.70;99.90
63289;DHT22;49412;48.162;-1.978;2022-10-16T08:46:15;17.70;99.90
63289;DHT22;49412;48.162;-1.978;2022-10-16T08:48:46;17.60;99.90
63289;DHT22;49412;48.162;-1.978;2022-10-16T08:51:16;17.50;99.90
63289;DHT22;49412;48.162;-1.978;2022-10-16T08:53:49;17.40;99.90
63289;DHT22;49412;48.162;-1.978;2022-10-16T08:56:14;17.30;99.90
63289;DHT22;49412;48.162;-1.978;2022-10-16T08:58:40;17.40;99.90
63289;DHT22;49412;48.162;-1.978;2022-10-16T09:01:11;17.50;99.90
63289;DHT22;49412;48.162;-1.978;2022-10-16T09:11:33;17.20;99.90
63289;DHT22;49412;48.162;-1.978;2022-10-16T09:16:37;17.30;99.90
63289;DHT22;49412;48.162;-1.978;2022-10-16T09:21:40;17.70;99.90
63289;DHT22;49412;48.162;-1.978;2022-10-16T09:24:09;17.70;99.90
63289;DHT22;49412;48.162;-1.978;2022-10-16T09:26:36;17.70;99.90
63289;DHT22;49412;48.162;-1.978;2022-10-16T09:29:02;17.60;99.90
63289;DHT22;49412;48.162;-1.978;2022-10-16T09:31:28;17.80;99.90
63289;DHT22;49412;48.162;-1.978;2022-10-16T09:34:03;17.80;99.90
63289;DHT22;49412;48.162;-1.978;2022-10-16T09:36:34;17.80;99.90
63289;DHT22;49412;48.162;-1.978;2022-10-16T09:39:05;18.00;99.90
63289;DHT22;49412;48.162;-1.978;2022-10-16T09:41:33;18.30;99.90
63289;DHT22;49412;48.162;-1.978;2022-10-16T09:44:00;18.60;99.90
63289;DHT22;49412;48.162;-1.978;2022-10-16T09:48:57;18.80;99.90
63289;DHT22;49412;48.162;-1.978;2022-10-16T09:51:24;18.60;99.90
63289;DHT22;49412;48.162;-1.978;2022-10-16T09:53:53;18.70;99.90
63289;DHT22;49412;48.162;-1.978;2022-10-16T09:56:25;18.60;99.90
63289;DHT22;49412;48.162;-1.978;2022-10-16T09:58:51;18.60;99.90
63289;DHT22;49412;48.162;-1.978;2022-10-16T10:01:17;18.70;99.90
63289;DHT22;49412;48.162;-1.978;2022-10-16T10:03:44;18.70;99.90
63289;DHT22;49412;48.162;-1.978;2022-10-16T10:06:18;18.90;99.90
63289;DHT22;49412;48.162;-1.978;2022-10-16T10:08:59;19.00;99.90
63289;DHT22;49412;48.162;-1.978;2022-10-16T10:14:04;18.80;99.90
63289;DHT22;49412;48.162;-1.978;2022-10-16T10:16:29;18.50;99.90
63289;DHT22;49412;48.162;-1.978;2022-10-16T10:18:58;18.30;99.90
63289;DHT22;49412;48.162;-1.978;2022-10-16T10:21:24;18.20;99.90
63289;DHT22;49412;48.162;-1.978;2022-10-16T10:23:56;18.30;99.90
63289;DHT22;49412;48.162;-1.978;2022-10-16T10:26:26;18.20;99.90
63289;DHT22;49412;48.162;-1.978;2022-10-16T10:29:01;18.00;99.90
63289;DHT22;49412;48.162;-1.978;2022-10-16T10:36:41;17.60;99.90
63289;DHT22;49412;48.162;-1.978;2022-10-16T10:39:13;17.40;99.90
63289;DHT22;49412;48.162;-1.978;2022-10-16T10:42:00;17.00;99.90
63289;DHT22;49412;48.162;-1.978;2022-10-16T10:47:07;16.40;99.90
63289;DHT22;49412;48.162;-1.978;2022-10-16T10:54:38;15.70;99.90
63289;DHT22;49412;48.162;-1.978;2022-10-16T11:02:21;15.40;99.90
63289;DHT22;49412;48.162;-1.978;2022-10-16T11:07:15;15.20;99.90
63289;DHT22;49412;48.162;-1.978;2022-10-16T11:09:43;15.00;99.90
63289;DHT22;49412;48.162;-1.978;2022-10-16T11:14:42;15.00;99.90
63289;DHT22;49412;48.162;-1.978;2022-10-16T11:17:12;14.90;99.90
63289;DHT22;49412;48.162;-1.978;2022-10-16T11:19:53;14.80;99.90
63289;DHT22;49412;48.162;-1.978;2022-10-16T11:22:20;14.70;99.90
63289;DHT22;49412;48.162;-1.978;2022-10-16T11:24:49;14.70;99.90
63289;DHT22;49412;48.162;-1.978;2022-10-16T11:27:19;14.70;99.90
63289;DHT22;49412;48.162;-1.978;2022-10-16T11:30:19;14.80;99.90
63289;DHT22;49412;48.162;-1.978;2022-10-16T11:32:43;15.00;99.90
63289;DHT22;49412;48.162;-1.978;2022-10-16T11:35:22;15.00;99.90
63289;DHT22;49412;48.162;-1.978;2022-10-16T11:37:49;15.20;99.90
63289;DHT22;49412;48.162;-1.978;2022-10-16T11:40:21;15.30;99.90
63289;DHT22;49412;48.162;-1.978;2022-10-16T11:51:09;16.00;99.90
63289;DHT22;49412;48.162;-1.978;2022-10-16T11:56:03;15.90;99.90
63289;DHT22;49412;48.162;-1.978;2022-10-16T11:58:36;15.70;99.90
63289;DHT22;49412;48.162;-1.978;2022-10-16T12:01:10;15.60;99.90
63289;DHT22;49412;48.162;-1.978;2022-10-16T12:03:48;15.60;99.90
63289;DHT22;49412;48.162;-1.978;2022-10-16T12:09:01;15.70;99.90
63289;DHT22;49412;48.162;-1.978;2022-10-16T12:16:37;16.20;99.90
63289;DHT22;49412;48.162;-1.978;2022-10-16T12:19:09;16.50;99.90
63289;DHT22;49412;48.162;-1.978;2022-10-16T12:21:36;16.60;99.90
63289;DHT22;49412;48.162;-1.978;2022-10-16T12:24:02;16.80;99.90
63289;DHT22;49412;48.162;-1.978;2022-10-16T12:26:30;17.00;99.90
63289;DHT22;49412;48.162;-1.978;2022-10-16T12:28:57;17.10;99.90
63289;DHT22;49412;48.162;-1.978;2022-10-16T12:31:38;16.90;99.90
63289;DHT22;49412;48.162;-1.978;2022-10-16T12:34:14;16.70;99.90
63289;DHT22;49412;48.162;-1.978;2022-10-16T12:36:45;16.60;99.90
63289;DHT22;49412;48.162;-1.978;2022-10-16T12:39:17;16.50;99.90
63289;DHT22;49412;48.162;-1.978;2022-10-16T12:41:45;16.40;99.90
63289;DHT22;49412;48.162;-1.978;2022-10-16T12:44:23;16.40;99.90
63289;DHT22;49412;48.162;-1.978;2022-10-16T12:46:49;16.40;99.90
63289;DHT22;49412;48.162;-1.978;2022-10-16T12:49:21;16.50;99.90
63289;DHT22;49412;48.162;-1.978;2022-10-16T12:51:47;16.50;99.90
63289;DHT22;49412;48.162;-1.978;2022-10-16T12:54:17;16.40;99.90
63289;DHT22;49412;48.162;-1.978;2022-10-16T13:02:18;16.60;99.90
63289;DHT22;49412;48.162;-1.978;2022-10-16T13:15:11;16.70;99.90
63289;DHT22;49412;48.162;-1.978;2022-10-16T13:23:08;16.80;99.90
63289;DHT22;49412;48.162;-1.978;2022-10-16T13:28:04;16.70;99.90
63289;DHT22;49412;48.162;-1.978;2022-10-16T13:30:52;16.70;99.90
63289;DHT22;49412;48.162;-1.978;2022-10-16T13:34:02;16.60;99.90
63289;DHT22;49412;48.162;-1.978;2022-10-16T13:36:02;16.50;99.90
63289;DHT22;49412;48.162;-1.978;2022-10-16T13:38:32;16.60;99.90
63289;DHT22;49412;48.162;-1.978;2022-10-16T13:41:05;16.60;99.90
63289;DHT22;49412;48.162;-1.978;2022-10-16T13:43:35;16.60;99.90
63289;DHT22;49412;48.162;-1.978;2022-10-16T13:46:11;16.50;99.90
63289;DHT22;49412;48.162;-1.978;2022-10-16T13:48:37;16.40;99.90
63289;DHT22;49412;48.162;-1.978;2022-10-16T13:51:04;16.50;99.90
63289;DHT22;49412;48.162;-1.978;2022-10-16T13:53:31;16.50;99.90
63289;DHT22;49412;48.162;-1.978;2022-10-16T13:55:57;16.60;99.90
63289;DHT22;49412;48.162;-1.978;2022-10-16T13:58:22;16.70;99.90
63289;DHT22;49412;48.162;-1.978;2022-10-16T14:03:49;17.10;99.90
63289;DHT22;49412;48.162;-1.978;2022-10-16T14:06:16;17.60;99.90
63289;DHT22;49412;48.162;-1.978;2022-10-16T14:08:43;17.80;99.90
63289;DHT22;49412;48.162;-1.978;2022-10-16T14:11:09;17.80;99.90
63289;DHT22;49412;48.162;-1.978;2022-10-16T14:13:45;17.80;99.90
63289;DHT22;49412;48.162;-1.978;2022-10-16T14:16:16;17.80;99.90
63289;DHT22;49412;48.162;-1.978;2022-10-16T14:18:44;17.70;99.90
63289;DHT22;49412;48.162;-1.978;2022-10-16T14:21:14;17.70;99.90
63289;DHT22;49412;48.162;-1.978;2022-10-16T14:23:41;17.60;99.90
63289;DHT22;49412;48.162;-1.978;2022-10-16T14:28:35;17.70;99.90
63289;DHT22;49412;48.162;-1.978;2022-10-16T14:31:02;17.70;99.90
63289;DHT22;49412;48.162;-1.978;2022-10-16T14:36:01;17.90;99.90
63289;DHT22;49412;48.162;-1.978;2022-10-16T14:38:27;17.90;99.90
63289;DHT22;49412;48.162;-1.978;2022-10-16T14:40:53;18.00;99.90
63289;DHT22;49412;48.162;-1.978;2022-10-16T14:43:26;18.00;99.90
63289;DHT22;49412;48.162;-1.978;2022-10-16T14:45:54;18.10;99.90
63289;DHT22;49412;48.162;-1.978;2022-10-16T14:48:21;18.20;99.90
63289;DHT22;49412;48.162;-1.978;2022-10-16T14:50:46;18.40;99.90
63289;DHT22;49412;48.162;-1.978;2022-10-16T14:53:12;18.60;99.90
63289;DHT22;49412;48.162;-1.978;2022-10-16T14:55:38;18.80;99.90
63289;DHT22;49412;48.162;-1.978;2022-10-16T14:58:05;19.10;99.90
63289;DHT22;49412;48.162;-1.978;2022-10-16T15:00:31;19.30;99.90
63289;DHT22;49412;48.162;-1.978;2022-10-16T15:02:56;19.30;99.90
63289;DHT22;49412;48.162;-1.978;2022-10-16T15:05:23;19.30;99.90
63289;DHT22;49412;48.162;-1.978;2022-10-16T15:07:49;19.20;99.90
63289;DHT22;49412;48.162;-1.978;2022-10-16T15:10:16;19.40;99.90
63289;DHT22;49412;48.162;-1.978;2022-10-16T15:12:42;19.50;99.90
63289;DHT22;49412;48.162;-1.978;2022-10-16T15:17:49;19.60;99.90
63289;DHT22;49412;48.162;-1.978;2022-10-16T15:20:18;19.70;99.90
63289;DHT22;49412;48.162;-1.978;2022-10-16T15:22:43;19.70;99.90
63289;DHT22;49412;48.162;-1.978;2022-10-16T15:25:52;20.00;99.90
63289;DHT22;49412;48.162;-1.978;2022-10-16T15:27:58;20.10;99.90
63289;DHT22;49412;48.162;-1.978;2022-10-16T15:30:24;20.20;99.90
63289;DHT22;49412;48.162;-1.978;2022-10-16T15:32:50;20.50;99.90
63289;DHT22;49412;48.162;-1.978;2022-10-16T15:35:16;22.50;99.90
63289;DHT22;49412;48.162;-1.978;2022-10-16T15:37:41;23.10;99.90
63289;DHT22;49412;48.162;-1.978;2022-10-16T15:40:08;23.50;99.90
63289;DHT22;49412;48.162;-1.978;2022-10-16T15:42:34;22.40;99.90
63289;DHT22;49412;48.162;-1.978;2022-10-16T15:45:00;21.70;99.90
63289;DHT22;49412;48.162;-1.978;2022-10-16T15:47:25;22.00;99.90
63289;DHT22;49412;48.162;-1.978;2022-10-16T15:49:51;23.50;99.90
63289;DHT22;49412;48.162;-1.978;2022-10-16T15:52:16;24.50;99.90
63289;DHT22;49412;48.162;-1.978;2022-10-16T15:54:42;23.20;99.90
63289;DHT22;49412;48.162;-1.978;2022-10-16T15:57:08;22.70;99.90
63289;DHT22;49412;48.162;-1.978;2022-10-16T15:59:34;22.10;99.90
63289;DHT22;49412;48.162;-1.978;2022-10-16T16:01:59;21.30;99.90
63289;DHT22;49412;48.162;-1.978;2022-10-16T16:04:25;20.90;99.90
63289;DHT22;49412;48.162;-1.978;2022-10-16T16:06:51;20.30;99.90
63289;DHT22;49412;48.162;-1.978;2022-10-16T16:09:16;20.20;99.90
63289;DHT22;49412;48.162;-1.978;2022-10-16T16:11:42;20.20;99.90
63289;DHT22;49412;48.162;-1.978;2022-10-16T16:14:09;20.30;99.90
63289;DHT22;49412;48.162;-1.978;2022-10-16T16:16:36;20.50;99.90
63289;DHT22;49412;48.162;-1.978;2022-10-16T16:19:03;20.30;99.90
63289;DHT22;49412;48.162;-1.978;2022-10-16T16:21:30;20.20;99.90
63289;DHT22;49412;48.162;-1.978;2022-10-16T16:23:56;19.90;99.90
63289;DHT22;49412;48.162;-1.978;2022-10-16T16:26:26;19.70;99.90
63289;DHT22;49412;48.162;-1.978;2022-10-16T16:28:52;19.70;99.90
63289;DHT22;49412;48.162;-1.978;2022-10-16T16:31:18;19.70;99.90
63289;DHT22;49412;48.162;-1.978;2022-10-16T16:33:44;19.60;99.90
63289;DHT22;49412;48.162;-1.978;2022-10-16T16:36:10;19.40;99.90
63289;DHT22;49412;48.162;-1.978;2022-10-16T16:38:35;19.20;99.90
63289;DHT22;49412;48.162;-1.978;2022-10-16T16:41:17;19.10;99.90
63289;DHT22;49412;48.162;-1.978;2022-10-16T16:43:43;19.30;99.90
63289;DHT22;49412;48.162;-1.978;2022-10-16T16:46:09;19.10;99.90
63289;DHT22;49412;48.162;-1.978;2022-10-16T16:48:35;19.00;99.90
63289;DHT22;49412;48.162;-1.978;2022-10-16T16:51:08;18.90;99.90
63289;DHT22;49412;48.162;-1.978;2022-10-16T16:53:34;18.80;99.90
63289;DHT22;49412;48.162;-1.978;2022-10-16T16:56:03;18.70;99.90
63289;DHT22;49412;48.162;-1.978;2022-10-16T16:58:29;18.70;99.90
63289;DHT22;49412;48.162;-1.978;2022-10-16T17:00:55;18.60;99.90